Bookmark and Share
Track history (hours):
 

Kinrikimaru

Last reported at 2014-Apr-16 07:33 UTC. Time now 2014-Apr-17 18:41 UTC.
Position N 34°36' E 135°05'.

Length 76 m; draft 4.4 m.

Type: Cargo ship. MMSI: 431500615.

NotesDate/timePositionNaut miles runAvg speedWind from/ knotsBaromVisibWave heightAir tempDewpointWater temp
2014-Apr-16 07:33N 34°36' E 135°05'1211.7
2014-Apr-16 06:33N 34°37' E 135°19'5 5.2
2014-Apr-16 05:33N 34°35' E 135°25'0 0.2
2014-Apr-16 04:17N 34°35' E 135°26'0 0.0
2014-Apr-16 03:29N 34°35' E 135°26'0 0.0
2014-Apr-16 02:23N 34°35' E 135°26'0 0.0
2014-Apr-16 01:29N 34°35' E 135°26'0 0.0
2014-Apr-15 23:23N 34°35' E 135°26'0 0.3
2014-Apr-15 22:16N 34°35' E 135°25'3 4.1
2014-Apr-15 21:33N 34°36' E 135°22'1312.5
2014-Apr-15 20:33N 34°27' E 135°11'1311.9
2014-Apr-15 19:26N 34°18' E 135°00'1011.1
2014-Apr-15 18:33N 34°08' E 134°57'20 0.5
2014-Apr-14 05:33N 34°26' E 135°07'17 2.2
2014-Apr-13 21:31N 34°35' E 135°25'0 0.0
2014-Apr-13 20:25N 34°35' E 135°25'0 0.0
2014-Apr-13 19:25N 34°35' E 135°25'0 0.1
2014-Apr-13 18:25N 34°35' E 135°25'0 0.0
2014-Apr-13 17:19N 34°35' E 135°25'0 0.0
2014-Apr-13 16:31N 34°35' E 135°25'0 0.0
2014-Apr-13 15:31N 34°35' E 135°25'0 0.1
2014-Apr-13 14:19N 34°35' E 135°25'0 0.1
2014-Apr-13 13:31N 34°35' E 135°25'0 0.0
2014-Apr-13 12:31N 34°35' E 135°25'0 0.0
2014-Apr-13 11:31N 34°35' E 135°25'0 0.0
2014-Apr-13 10:19N 34°35' E 135°25'0 0.1
2014-Apr-13 09:25N 34°35' E 135°25'0 0.0
2014-Apr-13 08:31N 34°35' E 135°25'1 0.7
2014-Apr-13 07:33N 34°36' E 135°25'1010.4
2014-Apr-13 06:33N 34°30' E 135°14'1212.2
2014-Apr-13 05:32N 34°21' E 135°04'1010.0
2014-Apr-13 04:29N 34°11' E 134°60'  
2014-Apr-10 19:25N 34°52' E 139°57'3611.7
2014-Apr-10 16:19N 35°15' E 140°31'  
2014-Apr-06 11:28N 35°23' E 140°38'1011.3
2014-Apr-06 10:33N 35°15' E 140°30'1411.5
2014-Apr-06 09:23N 35°05' E 140°19'1012.3
2014-Apr-06 08:33N 34°59' E 140°09'  

Dump ship's entire track history

sailing weather and tide predictions

Kinrikimaru — JL6545 — position and weather